createdAt,value
2018-09-29T00:01:12.120Z,88.29
2018-09-29T00:03:40.673Z,88.67
2018-09-29T00:06:09.547Z,88.29
2018-09-29T00:08:38.515Z,88.57
2018-09-29T00:11:07.222Z,88.44
2018-09-29T00:13:35.704Z,88.51
2018-09-29T00:16:06.325Z,88.79
2018-09-29T00:18:34.837Z,88.07
2018-09-29T00:21:05.051Z,88.52
2018-09-29T00:23:33.628Z,88.58
2018-09-29T00:26:04.218Z,88.37
2018-09-29T00:28:33.283Z,89.27
2018-09-29T00:31:03.160Z,88.63
2018-09-29T00:33:31.642Z,88.49
2018-09-29T00:36:00.156Z,88.45
2018-09-29T00:38:29.021Z,88.43
2018-09-29T00:40:57.863Z,88.05
2018-09-29T00:43:26.419Z,88.22
2018-09-29T00:45:54.915Z,88.43
2018-09-29T00:48:23.645Z,89.88
2018-09-29T00:50:52.400Z,88.88
2018-09-29T00:53:20.895Z,88.94
2018-09-29T00:55:49.417Z,89.25
2018-09-29T00:58:17.917Z,89.31
2018-09-29T01:00:46.449Z,89.43
2018-09-29T01:03:14.970Z,90.04
2018-09-29T01:05:43.523Z,90.11
2018-09-29T01:08:12.007Z,90.12
2018-09-29T01:10:40.533Z,89.87
2018-09-29T01:13:09.200Z,89.97
2018-09-29T01:15:37.714Z,90.57
2018-09-29T01:18:06.517Z,90.18
2018-09-29T01:20:35.519Z,90.84
2018-09-29T01:23:05.557Z,90.59
2018-09-29T01:25:34.070Z,91.60
2018-09-29T01:28:04.113Z,90.84
2018-09-29T01:30:32.639Z,90.54
2018-09-29T01:33:03.248Z,91.15
2018-09-29T01:35:31.780Z,90.58
2018-09-29T01:38:00.268Z,90.30
2018-09-29T01:40:28.767Z,91.06
2018-09-29T01:42:57.542Z,91.45
2018-09-29T01:45:26.296Z,91.20
2018-09-29T01:47:54.794Z,90.76
2018-09-29T01:50:23.382Z,91.09
2018-09-29T01:52:51.947Z,90.59
2018-09-29T01:55:20.466Z,90.55
2018-09-29T01:57:49.074Z,91.09
2018-09-29T02:00:17.944Z,91.04
2018-09-29T02:02:46.454Z,90.97
2018-09-29T02:05:15.030Z,91.18
2018-09-29T02:07:43.513Z,91.72
2018-09-29T02:10:12.329Z,91.46
2018-09-29T02:12:40.805Z,91.25
2018-09-29T02:15:09.302Z,90.22
2018-09-29T02:17:37.977Z,90.87
2018-09-29T02:20:06.464Z,91.79
2018-09-29T02:22:34.932Z,91.09
2018-09-29T02:25:05.394Z,91.08
2018-09-29T02:27:33.902Z,91.40
2018-09-29T02:30:04.204Z,91.17
2018-09-29T02:32:32.770Z,91.25
2018-09-29T02:35:03.145Z,91.19
2018-09-29T02:37:31.956Z,91.32
2018-09-29T02:40:00.435Z,91.70
2018-09-29T02:42:28.937Z,91.71
2018-09-29T02:44:57.471Z,91.61
2018-09-29T02:47:25.957Z,91.25
2018-09-29T02:49:54.455Z,91.13
2018-09-29T02:52:22.974Z,91.21
2018-09-29T02:54:51.469Z,91.33
2018-09-29T02:57:19.962Z,91.26
2018-09-29T02:59:48.475Z,91.16
2018-09-29T03:02:17.107Z,91.17
2018-09-29T03:04:46.142Z,90.87
2018-09-29T03:07:15.384Z,90.92
2018-09-29T03:09:44.244Z,91.62
2018-09-29T03:12:12.753Z,91.69
2018-09-29T03:14:41.527Z,92.40
2018-09-29T03:17:10.021Z,92.49
2018-09-29T03:19:38.524Z,92.67
2018-09-29T03:22:07.083Z,91.86
2018-09-29T03:24:35.585Z,91.77
2018-09-29T03:27:05.387Z,92.13
2018-09-29T03:29:34.126Z,91.96
2018-09-29T03:32:03.883Z,91.91
2018-09-29T03:34:32.454Z,92.22
2018-09-29T03:37:03.429Z,92.20
2018-09-29T03:39:31.905Z,92.88
2018-09-29T03:42:00.429Z,92.20
2018-09-29T03:44:29.503Z,92.49
2018-09-29T03:46:58.018Z,91.99
2018-09-29T03:49:26.647Z,91.82
2018-09-29T03:51:55.385Z,92.27
2018-09-29T03:54:23.960Z,92.42
2018-09-29T03:56:52.553Z,91.87
2018-09-29T03:59:21.127Z,91.57
2018-09-29T04:01:49.789Z,91.96
2018-09-29T04:04:18.352Z,91.17
2018-09-29T04:06:46.873Z,91.21
2018-09-29T04:09:15.653Z,91.15
2018-09-29T04:11:44.798Z,91.27
2018-09-29T04:14:13.315Z,90.97
2018-09-29T04:16:41.830Z,91.18
2018-09-29T04:19:10.464Z,91.53
2018-09-29T04:21:46.865Z,91.53
2018-09-29T04:24:16.095Z,91.90
2018-09-29T04:26:45.081Z,91.31
2018-09-29T04:29:15.017Z,91.31
2018-09-29T04:31:43.700Z,91.69
2018-09-29T04:34:13.131Z,91.31
2018-09-29T04:36:42.376Z,91.47
2018-09-29T04:39:12.625Z,92.18
2018-09-29T04:41:41.129Z,91.87
2018-09-29T04:44:10.219Z,91.84
2018-09-29T04:46:39.210Z,91.86
2018-09-29T04:49:08.787Z,91.62
2018-09-29T04:51:37.243Z,92.07
2018-09-29T04:54:08.236Z,92.00
2018-09-29T04:56:36.736Z,92.02
2018-09-29T04:59:05.281Z,92.29
2018-09-29T05:01:33.810Z,91.97
2018-09-29T05:04:03.763Z,91.82
2018-09-29T05:06:32.323Z,91.73
2018-09-29T05:09:00.771Z,92.09
2018-09-29T05:11:29.316Z,92.11
2018-09-29T05:13:57.907Z,91.50
2018-09-29T05:16:26.396Z,91.62
2018-09-29T05:18:54.871Z,91.81
2018-09-29T05:21:23.368Z,91.79
2018-09-29T05:23:51.909Z,91.48
2018-09-29T05:26:20.413Z,91.49
2018-09-29T05:28:48.929Z,91.42
2018-09-29T05:31:17.466Z,91.71
2018-09-29T05:33:46.060Z,91.16
2018-09-29T05:36:14.629Z,91.01
2018-09-29T05:38:43.139Z,90.77
2018-09-29T05:41:11.830Z,90.72
2018-09-29T05:43:40.327Z,90.96
2018-09-29T05:46:08.841Z,90.54
2018-09-29T05:48:37.686Z,91.16
2018-09-29T05:51:06.164Z,91.01
2018-09-29T05:53:34.687Z,91.32
2018-09-29T05:56:05.333Z,91.16
2018-09-29T05:58:34.157Z,91.60
2018-09-29T06:01:04.052Z,91.71
2018-09-29T06:03:32.545Z,91.90
2018-09-29T06:06:02.779Z,91.77
2018-09-29T06:08:31.287Z,91.79
2018-09-29T06:10:59.781Z,91.45
2018-09-29T06:13:28.323Z,91.32
2018-09-29T06:15:57.017Z,91.15
2018-09-29T06:18:25.521Z,91.46
2018-09-29T06:20:54.418Z,91.44
2018-09-29T06:23:22.895Z,90.91
2018-09-29T06:25:51.433Z,90.83
2018-09-29T06:28:19.975Z,90.37
2018-09-29T06:30:48.588Z,90.02
2018-09-29T06:33:17.524Z,90.72
2018-09-29T06:35:46.064Z,90.84
2018-09-29T06:38:14.572Z,91.07
2018-09-29T06:40:43.271Z,90.03
2018-09-29T06:43:11.834Z,89.69
2018-09-29T06:45:40.355Z,90.42
2018-09-29T06:48:08.941Z,90.04
2018-09-29T06:50:37.551Z,89.37
2018-09-29T06:53:06.103Z,89.13
2018-09-29T06:55:34.727Z,89.92
2018-09-29T06:58:04.886Z,89.38
2018-09-29T07:00:33.462Z,88.82
2018-09-29T07:03:04.053Z,88.84
2018-09-29T07:05:32.562Z,88.84
2018-09-29T07:08:04.002Z,88.25
2018-09-29T07:10:32.528Z,88.47
2018-09-29T07:13:01.081Z,88.29
2018-09-29T07:15:29.981Z,88.52
2018-09-29T07:17:58.624Z,86.88
2018-09-29T07:20:27.127Z,85.78
2018-09-29T07:22:55.635Z,85.24
2018-09-29T07:25:24.292Z,85.79
2018-09-29T07:27:52.775Z,86.14
2018-09-29T07:30:21.268Z,85.11
2018-09-29T07:32:49.751Z,84.18
2018-09-29T07:35:18.263Z,84.11
2018-09-29T07:37:46.769Z,83.30
2018-09-29T07:40:15.352Z,83.06
2018-09-29T07:42:44.181Z,83.54
2018-09-29T07:45:12.826Z,82.27
2018-09-29T07:47:41.356Z,82.22
2018-09-29T07:50:09.924Z,82.48
2018-09-29T07:52:38.500Z,81.55
2018-09-29T07:55:07.003Z,82.24
2018-09-29T07:57:35.530Z,81.31
2018-09-29T08:00:08.268Z,81.92
2018-09-29T08:02:37.534Z,79.44
2018-09-29T08:05:06.321Z,79.28
2018-09-29T08:07:35.210Z,79.59
2018-09-29T08:10:05.526Z,78.70
2018-09-29T08:12:34.074Z,78.88
2018-09-29T08:15:04.448Z,76.45
2018-09-29T08:17:33.424Z,76.45
2018-09-29T08:20:03.569Z,76.76
2018-09-29T08:22:32.100Z,74.77
2018-09-29T08:25:00.644Z,74.56
2018-09-29T08:27:29.239Z,72.60
2018-09-29T08:30:03.897Z,72.99
2018-09-29T08:32:32.478Z,71.96
2018-09-29T08:35:02.733Z,71.44
2018-09-29T08:37:31.291Z,71.79
2018-09-29T08:39:59.792Z,71.06
2018-09-29T08:42:28.352Z,69.49
2018-09-29T08:44:56.876Z,68.51
2018-09-29T08:47:25.471Z,68.98
2018-09-29T08:49:53.970Z,68.51
2018-09-29T08:52:22.478Z,66.65
2018-09-29T08:54:50.997Z,66.72
2018-09-29T08:57:19.498Z,67.74
2018-09-29T08:59:48.050Z,64.59
2018-09-29T09:02:16.566Z,64.40
2018-09-29T09:04:45.281Z,65.33
2018-09-29T09:07:13.824Z,62.46
2018-09-29T09:09:42.375Z,62.59
2018-09-29T09:12:10.912Z,61.75
2018-09-29T09:14:39.422Z,60.53
2018-09-29T09:17:07.949Z,60.50
2018-09-29T09:19:36.485Z,59.32
2018-09-29T09:22:05.895Z,59.26
2018-09-29T09:24:34.537Z,60.93
2018-09-29T09:27:04.767Z,58.71
2018-09-29T09:29:33.586Z,58.80
2018-09-29T09:32:08.738Z,59.77
2018-09-29T09:34:37.373Z,56.39
2018-09-29T09:37:06.053Z,56.98
2018-09-29T09:39:34.574Z,56.56
2018-09-29T09:42:04.710Z,56.03
2018-09-29T09:44:33.237Z,55.88
2018-09-29T09:47:02.606Z,56.24
2018-09-29T09:49:31.484Z,58.31
2018-09-29T10:02:25.809Z,55.49
2018-09-29T10:04:54.356Z,56.87
2018-09-29T10:07:22.892Z,54.43
2018-09-29T10:09:51.775Z,54.85
2018-09-29T10:12:20.313Z,54.72
2018-09-29T10:14:48.818Z,55.03
2018-09-29T10:19:51.948Z,54.08
2018-09-29T10:22:20.504Z,52.71
2018-09-29T10:24:49.041Z,53.05
2018-09-29T10:27:19.962Z,52.99
2018-09-29T10:29:48.477Z,54.93
2018-09-29T10:32:17.001Z,51.37
2018-09-29T10:37:47.148Z,52.20
2018-09-29T10:40:27.879Z,51.87
2018-09-29T10:43:07.253Z,51.61
2018-09-29T10:45:35.727Z,52.37
2018-09-29T10:48:05.180Z,53.30
2018-09-29T10:50:36.950Z,51.52
2018-09-29T10:53:05.680Z,51.18
2018-09-29T10:55:34.206Z,49.91
2018-09-29T10:58:08.796Z,49.62
2018-09-29T11:00:37.324Z,49.60
2018-09-29T11:03:05.881Z,48.25
2018-09-29T11:05:35.096Z,48.82
2018-09-29T11:08:05.028Z,48.23
2018-09-29T11:10:36.889Z,47.48
2018-09-29T11:13:05.864Z,46.24
2018-09-29T11:15:34.411Z,46.05
2018-09-29T11:18:05.597Z,46.52
2018-09-29T11:20:34.125Z,46.66
2018-09-29T11:23:04.089Z,46.99
2018-09-29T11:25:32.922Z,45.52
2018-09-29T11:28:02.875Z,46.20
2018-09-29T11:30:31.425Z,46.39
2018-09-29T11:33:03.111Z,45.55
2018-09-29T11:35:31.719Z,45.39
2018-09-29T11:38:00.258Z,45.42
2018-09-29T11:40:28.989Z,45.23
2018-09-29T11:42:57.488Z,46.03
2018-09-29T11:45:32.436Z,46.04
2018-09-29T11:48:03.469Z,45.20
2018-09-29T11:50:32.053Z,45.11
2018-09-29T11:53:00.553Z,45.42
2018-09-29T11:55:29.354Z,47.67
2018-09-29T11:57:58.244Z,47.27
2018-09-29T12:00:26.791Z,47.05
2018-09-29T12:02:55.526Z,46.40
2018-09-29T12:05:24.129Z,44.72
2018-09-29T12:07:52.889Z,44.96
2018-09-29T12:10:23.758Z,44.07
2018-09-29T12:12:52.317Z,42.66
2018-09-29T12:15:20.924Z,40.57
2018-09-29T12:17:49.599Z,41.43
2018-09-29T12:20:18.125Z,37.86
2018-09-29T12:22:46.674Z,37.51
2018-09-29T12:25:15.487Z,37.42
2018-09-29T12:27:44.072Z,33.88
2018-09-29T12:30:12.581Z,37.39
2018-09-29T12:32:41.421Z,33.21
2018-09-29T12:35:09.978Z,33.90
2018-09-29T12:37:38.671Z,31.41
2018-09-29T12:40:07.189Z,30.43
2018-09-29T12:42:35.789Z,35.00
2018-09-29T12:45:04.330Z,32.63
2018-09-29T12:47:32.880Z,40.17
2018-09-29T12:50:03.039Z,40.80
2018-09-29T12:52:31.556Z,39.35
2018-09-29T12:55:00.076Z,39.58
2018-09-29T12:57:28.621Z,31.66
2018-09-29T12:59:57.194Z,34.33
2018-09-29T13:02:25.706Z,32.16
2018-09-29T13:04:54.299Z,33.33
2018-09-29T13:07:22.868Z,31.88
2018-09-29T13:09:51.411Z,30.19
2018-09-29T13:12:19.964Z,30.46
2018-09-29T13:14:48.796Z,30.33
2018-09-29T13:17:17.320Z,31.52
2018-09-29T13:19:45.885Z,30.70
2018-09-29T13:22:15.208Z,32.76
2018-09-29T13:24:43.738Z,28.69
2018-09-29T13:27:12.502Z,29.43
2018-09-29T13:29:41.333Z,32.57
2018-09-29T13:32:10.289Z,30.52
2018-09-29T13:34:38.833Z,31.33
2018-09-29T13:37:07.449Z,31.90
2018-09-29T13:39:36.051Z,32.97
2018-09-29T13:42:05.198Z,31.10
2018-09-29T13:44:34.398Z,30.07
2018-09-29T13:47:04.877Z,29.03
2018-09-29T13:49:33.424Z,29.11
2018-09-29T13:52:02.724Z,30.81
2018-09-29T13:54:31.558Z,37.69
2018-09-29T13:57:00.075Z,37.94
2018-09-29T13:59:28.686Z,34.77
2018-09-29T14:01:57.698Z,35.70
2018-09-29T14:04:26.222Z,31.32
2018-09-29T14:06:54.749Z,35.88
2018-09-29T14:09:23.294Z,34.59
2018-09-29T14:11:51.867Z,30.80
2018-09-29T14:14:20.388Z,30.42
2018-09-29T14:16:48.930Z,30.60
2018-09-29T14:19:17.518Z,32.99
2018-09-29T14:21:46.046Z,31.34
2018-09-29T14:24:20.694Z,31.50
2018-09-29T14:26:49.571Z,33.23
2018-09-29T14:29:18.160Z,36.45
2018-09-29T14:31:46.660Z,37.67
2018-09-29T14:34:15.192Z,32.67
2018-09-29T14:36:43.676Z,30.13
2018-09-29T14:39:12.246Z,30.71
2018-09-29T14:41:40.909Z,29.84
2018-09-29T14:44:10.108Z,27.57
2018-09-29T14:46:38.633Z,28.99
2018-09-29T14:49:07.238Z,29.91
2018-09-29T14:51:35.799Z,33.64
2018-09-29T14:54:06.381Z,35.63
2018-09-29T14:56:35.042Z,30.91
2018-09-29T14:59:05.673Z,30.40
2018-09-29T15:01:34.250Z,28.75
2018-09-29T15:04:06.183Z,29.15
2018-09-29T15:06:34.995Z,29.16
2018-09-29T15:09:08.415Z,29.73
2018-09-29T15:11:37.470Z,27.53
2018-09-29T15:14:06.136Z,30.81
2018-09-29T15:16:34.646Z,31.54
2018-09-29T15:19:05.226Z,28.95
2018-09-29T15:21:33.798Z,32.42
2018-09-29T15:24:04.128Z,35.05
2018-09-29T15:26:32.674Z,36.56
2018-09-29T15:29:02.781Z,36.79
2018-09-29T15:31:31.325Z,37.27
2018-09-29T15:33:59.842Z,36.54
2018-09-29T15:36:28.485Z,39.60
2018-09-29T15:38:57.028Z,39.77
2018-09-29T15:41:25.802Z,39.56
2018-09-29T15:43:54.468Z,39.81
2018-09-29T15:46:23.007Z,39.72
2018-09-29T15:48:51.742Z,40.24
2018-09-29T15:51:20.202Z,41.50
2018-09-29T15:53:49.120Z,40.06
2018-09-29T15:56:18.051Z,40.41
2018-09-29T15:58:46.612Z,40.86
2018-09-29T16:01:15.169Z,41.79
2018-09-29T16:03:43.902Z,42.04
2018-09-29T16:06:12.855Z,43.28
2018-09-29T16:08:41.386Z,41.78
2018-09-29T16:11:11.037Z,40.86
2018-09-29T16:13:39.637Z,37.75
2018-09-29T16:16:08.236Z,37.77
2018-09-29T16:18:36.798Z,36.01
2018-09-29T16:21:05.487Z,34.81
2018-09-29T16:23:34.114Z,38.73
2018-09-29T16:26:04.862Z,37.69
2018-09-29T16:28:33.381Z,35.55
2018-09-29T16:31:03.787Z,35.69
2018-09-29T16:33:32.319Z,37.15
2018-09-29T16:36:00.850Z,38.87
2018-09-29T16:38:29.481Z,39.52
2018-09-29T16:40:57.944Z,40.29
2018-09-29T16:43:26.578Z,40.40
2018-09-29T16:45:55.133Z,42.53
2018-09-29T16:48:23.714Z,44.11
2018-09-29T16:50:52.378Z,45.00
2018-09-29T16:53:22.445Z,46.40
2018-09-29T16:55:50.974Z,47.71
2018-09-29T16:58:19.521Z,49.00
2018-09-29T17:00:48.590Z,51.00
2018-09-29T17:03:17.543Z,50.75
2018-09-29T17:05:46.297Z,51.24
2018-09-29T17:08:14.893Z,52.03
2018-09-29T17:10:44.238Z,53.60
2018-09-29T17:13:12.765Z,53.37
2018-09-29T17:15:41.304Z,55.28
2018-09-29T17:18:09.908Z,56.89
2018-09-29T17:20:40.301Z,58.46
2018-09-29T17:23:08.828Z,58.40
2018-09-29T17:25:37.361Z,59.49
2018-09-29T17:28:05.897Z,60.21
2018-09-29T17:30:34.442Z,60.78
2018-09-29T17:33:05.606Z,60.81
2018-09-29T17:35:34.158Z,62.83
2018-09-29T17:38:05.922Z,63.53
2018-09-29T17:40:34.546Z,64.00
2018-09-29T17:43:04.929Z,65.74
2018-09-29T17:45:33.479Z,66.39
2018-09-29T17:48:04.606Z,67.24
2018-09-29T17:50:33.337Z,68.15
2018-09-29T17:53:03.205Z,67.98
2018-09-29T17:55:31.761Z,68.72
2018-09-29T17:58:00.277Z,68.85
2018-09-29T18:00:28.810Z,68.60
2018-09-29T18:02:57.441Z,69.88
2018-09-29T18:05:26.050Z,70.06
2018-09-29T18:07:54.582Z,70.93
2018-09-29T18:10:23.177Z,71.41
2018-09-29T18:12:51.706Z,71.76
2018-09-29T18:15:20.237Z,72.01
2018-09-29T18:17:48.781Z,71.94
2018-09-29T18:20:17.496Z,72.27
2018-09-29T18:22:46.166Z,72.33
2018-09-29T18:25:14.977Z,72.90
2018-09-29T18:27:44.898Z,74.02
2018-09-29T18:30:13.464Z,74.17
2018-09-29T18:32:41.985Z,73.92
2018-09-29T18:35:10.555Z,74.20
2018-09-29T18:37:39.129Z,74.38
2018-09-29T18:40:07.708Z,74.73
2018-09-29T18:42:36.342Z,73.98
2018-09-29T18:45:05.273Z,74.67
2018-09-29T18:47:33.816Z,75.16
2018-09-29T18:50:04.006Z,76.01
2018-09-29T18:52:32.678Z,76.45
2018-09-29T18:55:04.023Z,76.66
2018-09-29T18:57:32.877Z,76.65
2018-09-29T19:00:03.222Z,77.11
2018-09-29T19:02:32.023Z,78.35
2018-09-29T19:05:00.525Z,77.87
2018-09-29T19:07:29.049Z,78.11
2018-09-29T19:09:57.630Z,77.71
2018-09-29T19:12:26.131Z,77.71
2018-09-29T19:14:54.813Z,78.62
2018-09-29T19:17:23.413Z,78.94
2018-09-29T19:19:52.624Z,79.83
2018-09-29T19:22:21.156Z,80.12
2018-09-29T19:24:49.956Z,79.54
2018-09-29T19:27:18.663Z,79.90
2018-09-29T19:29:47.198Z,80.66
2018-09-29T19:32:16.276Z,80.85
2018-09-29T19:34:44.891Z,80.59
2018-09-29T19:37:13.461Z,80.98
2018-09-29T19:39:42.092Z,81.09
2018-09-29T19:42:10.600Z,82.03
2018-09-29T19:44:39.164Z,82.27
2018-09-29T19:47:07.688Z,82.53
2018-09-29T19:49:36.252Z,82.44
2018-09-29T19:52:06.127Z,82.29
2018-09-29T19:54:34.699Z,82.95
2018-09-29T19:57:05.066Z,81.47
2018-09-29T19:59:33.596Z,82.13
2018-09-29T20:02:04.351Z,81.71
2018-09-29T20:04:32.950Z,81.57
2018-09-29T20:07:04.256Z,81.95
2018-09-29T20:09:32.792Z,82.88
2018-09-29T20:12:03.687Z,83.25
2018-09-29T20:14:32.214Z,82.76
2018-09-29T20:17:00.928Z,83.15
2018-09-29T20:19:29.500Z,84.17
2018-09-29T20:21:58.040Z,84.25
2018-09-29T20:24:26.642Z,84.37
2018-09-29T20:26:55.287Z,84.76
2018-09-29T20:29:23.997Z,84.31
2018-09-29T20:31:52.568Z,84.10
2018-09-29T20:34:21.079Z,84.02
2018-09-29T20:36:50.071Z,84.73
2018-09-29T20:39:18.588Z,84.40
2018-09-29T20:41:47.231Z,85.02
2018-09-29T20:44:15.993Z,84.70
2018-09-29T20:46:44.500Z,84.55
2018-09-29T20:49:13.021Z,84.22
2018-09-29T20:51:41.705Z,84.32
2018-09-29T20:54:10.645Z,84.33
2018-09-29T20:56:39.217Z,84.92
2018-09-29T20:59:07.733Z,86.02
2018-09-29T21:01:36.409Z,85.72
2018-09-29T21:04:05.129Z,84.88
2018-09-29T21:06:33.735Z,85.69
2018-09-29T21:09:04.625Z,85.73
2018-09-29T21:11:33.169Z,85.96
2018-09-29T21:14:04.198Z,86.28
2018-09-29T21:16:32.748Z,86.07
2018-09-29T21:19:03.532Z,85.47
2018-09-29T21:21:32.046Z,86.72
2018-09-29T21:24:00.681Z,86.52
2018-09-29T21:26:29.469Z,86.03
2018-09-29T21:28:57.994Z,86.30
2018-09-29T21:31:27.009Z,87.02
2018-09-29T21:33:55.819Z,86.45
2018-09-29T21:36:24.328Z,86.33
2018-09-29T21:38:52.930Z,86.64
2018-09-29T21:41:21.836Z,86.33
2018-09-29T21:43:50.370Z,86.59
2018-09-29T21:46:20.155Z,86.48
2018-09-29T21:48:48.698Z,86.56
2018-09-29T21:51:17.438Z,86.16
2018-09-29T21:53:45.996Z,86.60
2018-09-29T21:56:14.797Z,87.79
2018-09-29T21:58:43.334Z,87.41
2018-09-29T22:01:17.081Z,87.86
2018-09-29T22:03:45.626Z,87.98
2018-09-29T22:06:14.228Z,88.06
2018-09-29T22:08:42.768Z,87.58
2018-09-29T22:11:11.289Z,87.96
2018-09-29T22:13:40.167Z,87.27
2018-09-29T22:16:08.709Z,87.75
2018-09-29T22:18:37.226Z,88.25
2018-09-29T22:21:05.907Z,87.66
2018-09-29T22:23:34.322Z,88.43
2018-09-29T22:26:04.117Z,88.82
2018-09-29T22:28:32.656Z,88.64
2018-09-29T22:31:02.753Z,88.18
2018-09-29T22:33:31.300Z,88.55
2018-09-29T22:35:59.828Z,88.70
2018-09-29T22:38:28.500Z,88.66
2018-09-29T22:40:57.399Z,88.16
2018-09-29T22:43:26.204Z,88.00
2018-09-29T22:45:55.706Z,89.11
2018-09-29T22:48:24.249Z,88.87
2018-09-29T22:50:52.767Z,88.33
2018-09-29T22:53:21.649Z,89.01
2018-09-29T22:55:50.144Z,89.23
2018-09-29T22:58:18.710Z,89.20
2018-09-29T23:00:47.294Z,89.73
2018-09-29T23:03:15.834Z,89.22
2018-09-29T23:05:44.356Z,89.87
2018-09-29T23:08:12.870Z,89.05
2018-09-29T23:10:41.609Z,89.48
2018-09-29T23:13:10.412Z,90.44
2018-09-29T23:15:38.919Z,89.81
2018-09-29T23:18:07.455Z,90.38
2018-09-29T23:20:36.284Z,90.40
2018-09-29T23:23:04.783Z,90.29
2018-09-29T23:25:33.381Z,90.31
2018-09-29T23:28:03.128Z,90.21
2018-09-29T23:30:31.609Z,89.88
2018-09-29T23:33:00.098Z,90.66
2018-09-29T23:35:28.827Z,90.90
2018-09-29T23:37:57.415Z,90.28
2018-09-29T23:40:25.931Z,90.78
2018-09-29T23:42:54.421Z,90.44
2018-09-29T23:45:30.700Z,90.71
2018-09-29T23:47:59.218Z,90.79
2018-09-29T23:50:28.686Z,90.52
2018-09-29T23:52:57.222Z,90.96
2018-09-29T23:55:25.754Z,90.77
2018-09-29T23:57:54.256Z,90.63
